createdAt,value
2023-01-12T00:01:41.621Z,1.88
2023-01-12T00:04:08.801Z,1.50
2023-01-12T00:06:35.181Z,1.90
2023-01-12T00:09:03.242Z,1.80
2023-01-12T00:11:29.637Z,2.10
2023-01-12T00:13:56.127Z,2.28
2023-01-12T00:16:37.609Z,1.83
2023-01-12T00:19:13.152Z,1.87
2023-01-12T00:21:44.986Z,1.95
2023-01-12T00:24:11.360Z,2.22
2023-01-12T00:26:37.740Z,2.03
2023-01-12T00:29:04.127Z,2.28
2023-01-12T00:31:30.537Z,2.47
2023-01-12T00:33:56.917Z,2.15
2023-01-12T00:36:23.313Z,2.50
2023-01-12T00:38:49.692Z,2.15
2023-01-12T00:41:36.048Z,2.42
2023-01-12T00:44:22.120Z,2.43
2023-01-12T00:46:48.494Z,2.72
2023-01-12T00:49:14.909Z,2.53
2023-01-12T00:51:41.490Z,2.40
2023-01-12T00:54:08.444Z,2.53
2023-01-12T00:56:35.871Z,3.20
2023-01-12T00:59:03.161Z,2.40
2023-01-12T01:01:29.988Z,2.20
2023-01-12T01:03:56.468Z,2.30
2023-01-12T01:06:23.246Z,2.20
2023-01-12T01:08:50.351Z,2.20
2023-01-12T01:11:17.331Z,2.50
2023-01-12T01:13:44.471Z,2.40
2023-01-12T01:16:13.541Z,2.55
2023-01-12T01:18:40.605Z,2.35
2023-01-12T01:21:09.888Z,2.40
2023-01-12T01:23:37.889Z,2.92
2023-01-12T01:26:06.996Z,2.03
2023-01-12T01:28:34.339Z,2.40
2023-01-12T01:31:06.018Z,2.30
2023-01-12T01:33:32.451Z,2.37
2023-01-12T01:35:59.699Z,2.10
2023-01-12T01:38:26.575Z,2.13
2023-01-12T01:40:53.558Z,2.75
2023-01-12T01:43:22.040Z,2.95
2023-01-12T01:46:06.720Z,2.10
2023-01-12T01:48:36.696Z,2.47
2023-01-12T01:51:08.686Z,2.10
2023-01-12T01:53:37.657Z,2.22
2023-01-12T01:56:08.215Z,1.92
2023-01-12T01:58:46.785Z,2.10
2023-01-12T02:01:13.160Z,2.10
2023-01-12T02:03:41.031Z,2.00
2023-01-12T02:06:08.774Z,2.40
2023-01-12T02:08:46.703Z,2.30
2023-01-12T02:11:32.514Z,2.30
2023-01-12T02:14:17.383Z,2.28
2023-01-12T02:16:58.827Z,2.22
2023-01-12T02:19:56.527Z,2.33
2023-01-12T02:23:04.139Z,2.67
2023-01-12T02:26:01.687Z,2.30
2023-01-12T02:28:52.916Z,2.35
2023-01-12T02:31:54.290Z,2.28
2023-01-12T02:35:00.238Z,2.50
2023-01-12T02:37:49.176Z,2.60
2023-01-12T02:40:21.444Z,2.00
2023-01-12T02:43:14.989Z,2.25
2023-01-12T02:45:47.890Z,2.83
2023-01-12T02:48:24.332Z,3.30
2023-01-12T02:50:59.827Z,2.33
2023-01-12T02:53:44.863Z,2.60
2023-01-12T02:56:16.850Z,2.70
2023-01-12T02:58:48.321Z,3.00
2023-01-12T03:01:16.891Z,2.10
2023-01-12T03:03:43.731Z,2.78
2023-01-12T03:06:14.750Z,2.60
2023-01-12T03:08:41.136Z,2.20
2023-01-12T03:11:16.695Z,2.60
2023-01-12T03:13:51.949Z,2.50
2023-01-12T03:16:26.187Z,3.10
2023-01-12T03:18:58.789Z,3.03
2023-01-12T03:21:27.799Z,3.53
2023-01-12T03:24:12.928Z,2.92
2023-01-12T03:26:44.333Z,3.35
2023-01-12T03:29:21.795Z,3.75
2023-01-12T03:31:48.598Z,3.70
2023-01-12T03:34:14.993Z,3.70
2023-01-12T03:37:05.757Z,3.78
2023-01-12T03:40:07.581Z,3.85
2023-01-12T03:42:55.510Z,4.07
2023-01-12T03:45:36.733Z,4.63
2023-01-12T03:48:18.807Z,4.13
2023-01-12T03:50:49.580Z,3.78
2023-01-12T03:53:21.147Z,3.70
2023-01-12T03:55:50.191Z,3.42
2023-01-12T03:58:17.552Z,4.00
2023-01-12T04:00:44.534Z,3.58
2023-01-12T04:03:13.128Z,3.92
2023-01-12T04:05:44.598Z,3.63
2023-01-12T04:08:12.799Z,3.72
2023-01-12T04:10:39.226Z,3.83
2023-01-12T04:13:05.602Z,3.50
2023-01-12T04:15:31.965Z,3.58
2023-01-12T04:17:58.301Z,3.47
2023-01-12T04:20:24.687Z,3.67
2023-01-12T04:22:51.051Z,4.00
2023-01-12T04:25:20.094Z,3.13
2023-01-12T04:28:01.555Z,3.13
2023-01-12T04:30:29.670Z,3.40
2023-01-12T04:32:57.482Z,3.33
2023-01-12T04:35:24.746Z,3.60
2023-01-12T04:37:52.509Z,3.45
2023-01-12T04:40:19.598Z,3.35
2023-01-12T04:43:09.886Z,2.60
2023-01-12T04:45:39.675Z,3.50
2023-01-12T04:48:09.554Z,3.00
2023-01-12T04:50:36.148Z,2.28
2023-01-12T04:53:04.398Z,2.20
2023-01-12T04:55:31.532Z,2.00
2023-01-12T04:57:58.312Z,2.38
2023-01-12T05:00:24.939Z,2.30
2023-01-12T05:02:58.140Z,2.10
2023-01-12T05:05:24.802Z,2.40
2023-01-12T05:08:10.047Z,2.50
2023-01-12T05:10:36.500Z,2.20
2023-01-12T05:13:02.860Z,2.23
2023-01-12T05:15:29.305Z,1.77
2023-01-12T05:17:56.690Z,2.40
2023-01-12T05:20:23.273Z,1.50
2023-01-12T05:22:51.335Z,1.50
2023-01-12T05:25:17.755Z,1.20
2023-01-12T05:27:44.481Z,1.10
2023-01-12T05:30:11.036Z,1.38
2023-01-12T05:32:38.359Z,1.27
2023-01-12T05:35:08.818Z,1.20
2023-01-12T05:37:35.634Z,1.50
2023-01-12T05:40:02.088Z,1.05
2023-01-12T05:42:47.120Z,1.00
2023-01-12T05:45:13.533Z,1.10
2023-01-12T05:47:39.898Z,1.20
2023-01-12T05:50:06.519Z,1.20
2023-01-12T05:52:32.901Z,1.00
2023-01-12T05:54:59.305Z,1.35
2023-01-12T05:57:25.673Z,1.17
2023-01-12T05:59:52.033Z,1.60
2023-01-12T06:02:18.874Z,1.90
2023-01-12T06:04:45.338Z,1.27
2023-01-12T06:07:15.951Z,1.42
2023-01-12T06:09:42.633Z,0.98
2023-01-12T06:12:30.216Z,1.40
2023-01-12T06:14:56.625Z,1.00
2023-01-12T06:17:22.973Z,0.98
2023-01-12T06:19:49.344Z,0.90
2023-01-12T06:22:15.739Z,1.00
2023-01-12T06:24:42.171Z,0.82
2023-01-12T06:27:08.941Z,1.20
2023-01-12T06:29:35.296Z,1.10
2023-01-12T06:32:01.760Z,1.13
2023-01-12T06:34:28.192Z,1.10
2023-01-12T06:36:54.541Z,0.73
2023-01-12T06:39:20.916Z,0.80
2023-01-12T06:42:06.014Z,0.82
2023-01-12T06:44:32.387Z,0.77
2023-01-12T06:46:58.740Z,0.80
2023-01-12T06:49:25.149Z,0.77
2023-01-12T06:51:51.669Z,0.93
2023-01-12T06:54:18.813Z,0.70
2023-01-12T06:56:45.471Z,0.60
2023-01-12T06:59:12.550Z,0.88
2023-01-12T07:01:40.501Z,0.50
2023-01-12T07:04:07.617Z,0.60
2023-01-12T07:06:34.259Z,0.65
2023-01-12T07:09:00.842Z,0.57
2023-01-12T07:11:27.207Z,0.57
2023-01-12T07:13:55.166Z,0.50
2023-01-12T07:16:21.557Z,0.80
2023-01-12T07:18:48.135Z,0.60
2023-01-12T07:21:16.727Z,0.50
2023-01-12T07:23:43.681Z,0.65
2023-01-12T07:26:11.090Z,0.60
2023-01-12T07:28:38.053Z,0.70
2023-01-12T07:31:06.061Z,0.70
2023-01-12T07:33:34.216Z,0.60
2023-01-12T07:36:01.824Z,0.70
2023-01-12T07:38:29.429Z,0.70
2023-01-12T07:41:00.449Z,1.00
2023-01-12T07:43:27.366Z,0.90
2023-01-12T07:45:57.523Z,0.95
2023-01-12T07:48:25.014Z,0.77
2023-01-12T07:50:52.012Z,0.80
2023-01-12T07:53:19.531Z,0.87
2023-01-12T07:55:45.982Z,0.90
2023-01-12T07:58:12.610Z,0.90
2023-01-12T08:00:38.985Z,1.02
2023-01-12T08:03:14.901Z,1.00
2023-01-12T08:05:41.524Z,1.07
2023-01-12T08:08:08.324Z,1.30
2023-01-12T08:10:35.358Z,1.40
2023-01-12T08:13:01.887Z,1.30
2023-01-12T08:15:35.545Z,1.20
2023-01-12T08:18:10.370Z,1.60
2023-01-12T08:20:38.047Z,1.90
2023-01-12T08:23:21.892Z,1.77
2023-01-12T08:25:56.166Z,1.70
2023-01-12T08:28:31.576Z,1.58
2023-01-12T08:30:58.046Z,1.27
2023-01-12T08:33:26.543Z,1.50
2023-01-12T08:35:53.343Z,1.42
2023-01-12T08:38:19.757Z,1.73
2023-01-12T08:41:04.530Z,1.30
2023-01-12T08:43:49.440Z,1.30
2023-01-12T08:46:15.917Z,1.83
2023-01-12T08:48:42.308Z,1.65
2023-01-12T08:51:08.860Z,2.30
2023-01-12T08:53:35.766Z,2.17
2023-01-12T08:56:02.387Z,2.33
2023-01-12T08:58:28.746Z,2.20
2023-01-12T09:00:55.323Z,2.20
2023-01-12T09:03:22.210Z,1.75
2023-01-12T09:05:48.702Z,1.88
2023-01-12T09:08:15.084Z,2.07
2023-01-12T09:10:41.455Z,2.55
2023-01-12T09:13:07.816Z,2.63
2023-01-12T09:15:34.190Z,2.30
2023-01-12T09:18:00.565Z,2.35
2023-01-12T09:20:27.033Z,2.10
2023-01-12T09:22:53.454Z,2.10
2023-01-12T09:25:19.830Z,2.38
2023-01-12T09:27:46.245Z,1.83
2023-01-12T09:30:12.760Z,2.33
2023-01-12T09:32:39.099Z,2.37
2023-01-12T09:35:05.998Z,2.60
2023-01-12T09:37:32.405Z,1.90
2023-01-12T09:39:59.720Z,2.40
2023-01-12T09:42:44.795Z,1.65
2023-01-12T09:45:40.203Z,2.20
2023-01-12T09:48:10.379Z,2.38
2023-01-12T09:50:48.516Z,1.73
2023-01-12T09:53:22.345Z,1.90
2023-01-12T09:56:13.491Z,2.40
2023-01-12T09:59:09.066Z,2.30
2023-01-12T10:01:36.854Z,1.85
2023-01-12T10:04:03.939Z,2.40
2023-01-12T10:06:31.132Z,2.10
2023-01-12T10:29:22.112Z,2.42
2023-01-12T10:31:48.619Z,2.10
2023-01-12T10:34:15.051Z,1.90
2023-01-12T10:36:55.702Z,2.65
2023-01-12T17:28:16.787Z,1.75
2023-01-12T17:30:43.286Z,1.50
2023-01-12T17:33:10.882Z,1.20
2023-01-12T17:35:37.318Z,1.08
2023-01-12T17:38:03.868Z,1.30
2023-01-12T17:40:30.244Z,1.10
2023-01-12T17:43:02.713Z,1.30
2023-01-12T17:45:29.247Z,1.40
2023-01-12T17:47:55.776Z,1.10
2023-01-12T17:50:22.177Z,1.30
2023-01-12T17:52:48.527Z,1.60
2023-01-12T17:55:15.630Z,1.40
2023-01-12T17:57:42.067Z,1.25
2023-01-12T18:00:10.226Z,1.10
2023-01-12T18:02:36.680Z,1.00
2023-01-12T18:05:03.247Z,1.08
2023-01-12T18:07:31.864Z,1.17
2023-01-12T18:09:58.260Z,1.45
2023-01-12T18:12:26.051Z,1.45
2023-01-12T18:14:52.492Z,1.70
2023-01-12T18:17:18.856Z,1.65
2023-01-12T18:19:45.235Z,1.70
2023-01-12T18:22:11.660Z,1.50
2023-01-12T18:24:38.045Z,1.40
2023-01-12T18:27:04.472Z,1.35
2023-01-12T18:29:30.874Z,1.20
2023-01-12T18:31:57.229Z,1.23
2023-01-12T18:34:23.597Z,1.50
2023-01-12T18:36:50.067Z,1.73
2023-01-12T18:39:21.427Z,1.50
2023-01-12T18:42:07.406Z,1.55
2023-01-12T18:44:34.423Z,1.90
2023-01-12T18:47:19.856Z,2.13
2023-01-12T18:49:50.149Z,2.90
2023-01-12T18:52:36.551Z,3.20
2023-01-12T18:55:04.585Z,3.58
2023-01-12T18:57:32.311Z,3.40
2023-01-12T19:00:12.218Z,3.10
2023-01-12T19:02:40.316Z,3.00
2023-01-12T19:05:26.277Z,2.55
2023-01-12T19:07:58.363Z,2.63
2023-01-12T19:10:25.829Z,2.53
2023-01-12T19:13:12.191Z,3.00
2023-01-12T19:15:58.621Z,3.42
2023-01-12T19:18:25.354Z,3.13
2023-01-12T19:20:51.727Z,2.97
2023-01-12T19:23:36.889Z,3.30
2023-01-12T19:26:22.080Z,3.45
2023-01-12T19:28:48.459Z,3.33
2023-01-12T19:31:17.532Z,2.97
2023-01-12T19:33:44.366Z,3.28
2023-01-12T19:36:15.577Z,3.40
2023-01-12T19:38:44.231Z,3.60
2023-01-12T19:41:12.666Z,3.53
2023-01-12T19:43:44.987Z,3.42
2023-01-12T19:46:12.969Z,3.90
2023-01-12T19:48:39.487Z,4.40
2023-01-12T19:51:10.686Z,4.13
2023-01-12T19:53:38.983Z,4.20
2023-01-12T19:56:10.390Z,4.53
2023-01-12T19:58:36.950Z,4.65
2023-01-12T20:01:03.431Z,4.90
2023-01-12T20:03:30.126Z,4.53
2023-01-12T20:05:56.500Z,4.45
2023-01-12T20:08:25.218Z,4.40
2023-01-12T20:10:56.669Z,3.90
2023-01-12T20:13:23.048Z,3.23
2023-01-12T20:15:50.354Z,3.00
2023-01-12T20:18:18.658Z,4.00
2023-01-12T20:20:45.410Z,3.30
2023-01-12T20:23:12.789Z,3.08
2023-01-12T20:25:40.684Z,3.07
2023-01-12T20:28:07.515Z,2.92
2023-01-12T20:30:38.562Z,3.35
2023-01-12T20:33:06.518Z,3.08
2023-01-12T20:35:34.857Z,3.10
2023-01-12T20:38:03.928Z,2.97
2023-01-12T20:40:30.420Z,2.90
2023-01-12T20:42:56.769Z,3.08
2023-01-12T20:45:23.123Z,2.92
2023-01-12T20:47:49.586Z,2.80
2023-01-12T20:50:17.850Z,3.30
2023-01-12T20:52:44.270Z,2.78
2023-01-12T20:55:10.620Z,3.33
2023-01-12T20:57:38.922Z,2.70
2023-01-12T21:00:07.338Z,2.75
2023-01-12T21:02:33.719Z,2.80
2023-01-12T21:05:00.052Z,3.03
2023-01-12T21:07:26.399Z,2.90
2023-01-12T21:09:52.786Z,2.88
2023-01-12T21:12:19.670Z,2.53
2023-01-12T21:14:46.037Z,2.50
2023-01-12T21:17:12.531Z,2.42
2023-01-12T21:19:38.996Z,2.65
2023-01-12T21:22:05.421Z,2.42
2023-01-12T21:24:32.217Z,2.80
2023-01-12T21:26:58.655Z,2.73
2023-01-12T21:29:26.139Z,2.25
2023-01-12T21:31:53.084Z,2.70
2023-01-12T21:34:19.524Z,2.83
2023-01-12T21:36:46.154Z,2.38
2023-01-12T21:39:12.580Z,2.30
2023-01-12T21:41:57.699Z,2.42
2023-01-12T21:44:24.071Z,2.20
2023-01-12T21:46:50.412Z,2.00
2023-01-12T21:49:16.787Z,2.20
2023-01-12T21:51:43.165Z,2.50
2023-01-12T21:54:09.636Z,2.30
2023-01-12T21:56:36.235Z,2.15
2023-01-12T21:59:02.731Z,2.33
2023-01-12T22:01:29.239Z,2.35
2023-01-12T22:03:57.014Z,2.10
2023-01-12T22:06:23.447Z,1.65
2023-01-12T22:08:49.818Z,1.50
2023-01-12T22:11:16.968Z,1.00
2023-01-12T22:13:44.267Z,1.23
2023-01-12T22:16:13.686Z,1.00
2023-01-12T22:18:44.336Z,1.10
2023-01-12T22:21:11.016Z,0.90
2023-01-12T22:23:38.497Z,0.95
2023-01-12T22:26:08.801Z,0.85
2023-01-12T22:28:36.772Z,1.00
2023-01-12T22:31:08.708Z,1.00
2023-01-12T22:33:35.110Z,0.90
2023-01-12T22:36:02.857Z,1.20
2023-01-12T22:38:29.208Z,0.80
2023-01-12T22:40:55.563Z,1.20
2023-01-12T22:43:27.908Z,0.90
2023-01-12T22:45:57.677Z,1.00
2023-01-12T22:48:25.721Z,1.10
2023-01-12T22:50:55.766Z,1.00
2023-01-12T22:53:23.935Z,0.90
2023-01-12T22:55:51.367Z,1.55
2023-01-12T22:58:18.256Z,0.70
2023-01-12T23:00:45.406Z,1.13
2023-01-12T23:03:13.349Z,1.05
2023-01-12T23:05:46.275Z,1.07
2023-01-12T23:08:13.855Z,1.05
2023-01-12T23:10:41.191Z,0.93
2023-01-12T23:13:21.144Z,1.10
2023-01-12T23:15:50.128Z,1.25
2023-01-12T23:18:20.165Z,1.13
2023-01-12T23:20:49.113Z,1.10
2023-01-12T23:23:18.013Z,1.38
2023-01-12T23:25:45.590Z,1.65
2023-01-12T23:28:13.866Z,1.85
2023-01-12T23:30:41.210Z,1.50
2023-01-12T23:33:07.781Z,1.98
2023-01-12T23:35:36.766Z,1.65
2023-01-12T23:38:03.647Z,1.50
2023-01-12T23:40:30.018Z,1.83
2023-01-12T23:42:56.427Z,1.80
2023-01-12T23:45:23.865Z,1.65
2023-01-12T23:47:50.924Z,2.33
2023-01-12T23:50:17.771Z,2.33
2023-01-12T23:52:44.303Z,1.55
2023-01-12T23:55:10.671Z,1.90
2023-01-12T23:57:37.017Z,2.00
